Time;durP1;ratioP1;P1;durP2;ratioP2;P2;SDS_P1;SDS_P2;PMS_P1;PMS_P2;Temp;Humidity;BMP_temperature;BMP_pressure;BME280_temperature;BME280_humidity;BME280_pressure;Samples;Min_cycle;Max_cycle;Signal;HPM_P1;HPM_P2
2021/12/07 00:00:10;;;;;;;20.67;14.65;;;;;;;;;;5113465;27;20391;-50
2021/12/07 00:02:36;;;;;;;18.75;15.00;;;;;;;;;;5111631;27;20048;-50
2021/12/07 00:05:02;;;;;;;11.63;9.50;;;;;;;;;;5112317;27;20019;-53
2021/12/07 00:07:28;;;;;;;16.00;12.02;;;;;;;;;;5115747;27;20019;-52
2021/12/07 00:09:53;;;;;;;14.93;10.05;;;;;;;;;;5114829;27;20030;-52
2021/12/07 00:12:19;;;;;;;20.95;14.15;;;;;;;;;;5112274;27;20030;-49
2021/12/07 00:14:44;;;;;;;14.27;10.73;;;;;;;;;;5110598;27;20443;-54
2021/12/07 00:17:10;;;;;;;20.25;17.48;;;;;;;;;;5112092;28;20110;-50
2021/12/07 00:19:35;;;;;;;16.20;12.70;;;;;;;;;;5113268;28;20080;-50
2021/12/07 00:22:03;;;;;;;14.88;9.85;;;;;;;;;;5117405;28;20042;-52
2021/12/07 00:24:28;;;;;;;11.27;10.07;;;;;;;;;;5111457;28;20019;-54
2021/12/07 00:26:53;;;;;;;12.05;10.85;;;;;;;;;;5114242;28;20039;-53
2021/12/07 00:29:19;;;;;;;13.98;10.38;;;;;;;;;;5111145;28;20907;-50
2021/12/07 00:31:53;;;;;;;14.05;11.80;;;;;;;;;;5115205;28;20035;-53
2021/12/07 00:36:57;;;;;;;16.17;10.90;;;;;;;;;;5116606;28;20075;-51
2021/12/07 00:39:23;;;;;;;17.98;12.38;;;;;;;;;;5110851;28;20134;-50
2021/12/07 00:41:50;;;;;;;12.63;9.20;;;;;;;;;;5111981;28;20620;-48
2021/12/07 00:44:16;;;;;;;19.58;14.45;;;;;;;;;;5112641;28;20016;-51
2021/12/07 00:46:41;;;;;;;4.80;3.67;;;;;;;;;;5114677;28;20019;-50
2021/12/07 00:49:07;;;;;;;4.30;2.80;;;;;;;;;;5115854;28;20026;-51
2021/12/07 00:51:32;;;;;;;7.32;2.00;;;;;;;;;;5116214;28;20123;-51
2021/12/07 00:53:59;;;;;;;2.90;1.83;;;;;;;;;;5113484;28;20689;-52
2021/12/07 00:56:24;;;;;;;2.88;1.70;;;;;;;;;;5113411;28;20067;-50
2021/12/07 00:58:51;;;;;;;4.82;3.03;;;;;;;;;;5112842;28;20036;-54
2021/12/07 01:01:17;;;;;;;5.38;3.53;;;;;;;;;;5110269;28;20449;-50
2021/12/07 01:03:43;;;;;;;7.57;4.72;;;;;;;;;;5112321;28;20103;-53
2021/12/07 01:06:20;;;;;;;5.72;4.32;;;;;;;;;;5111275;28;20134;-54
2021/12/07 01:24:56;;;;;;;8.88;2.50;;;;;;;;;;5068668;28;20088;-51
2021/12/07 01:27:21;;;;;;;4.35;1.75;;;;;;;;;;5073869;28;20520;-49
2021/12/07 01:29:53;;;;;;;7.28;2.35;;;;;;;;;;5071640;28;20078;-52
2021/12/07 01:50:37;;;;;;;3.13;2.00;;;;;;;;;;5071040;28;20093;-51
2021/12/07 01:57:48;;;;;;;4.20;2.67;;;;;;;;;;5076121;28;20422;-53
2021/12/07 02:01:45;;;;;;;11.80;2.22;;;;;;;;;;5031640;28;20035;-54
2021/12/07 02:04:11;;;;;;;5.63;2.83;;;;;;;;;;5065552;28;20544;-51
2021/12/07 02:06:36;;;;;;;5.40;3.00;;;;;;;;;;5074651;28;20173;-54
2021/12/07 02:09:04;;;;;;;4.03;2.30;;;;;;;;;;5076206;28;20025;-49
2021/12/07 02:11:29;;;;;;;6.85;3.08;;;;;;;;;;5071704;28;20024;-52
2021/12/07 02:16:21;;;;;;;5.63;0.80;;;;;;;;;;5072992;28;20032;-52
2021/12/07 02:18:46;;;;;;;4.10;1.85;;;;;;;;;;5105283;27;20710;-53
2021/12/07 02:21:32;;;;;;;4.50;2.25;;;;;;;;;;5113545;27;20032;-50
2021/12/07 02:23:57;;;;;;;11.00;2.58;;;;;;;;;;5117457;27;20691;-53
2021/12/07 02:26:23;;;;;;;4.00;1.75;;;;;;;;;;5110848;27;20038;-51
2021/12/07 02:28:52;;;;;;;4.30;2.17;;;;;;;;;;5111433;27;20028;-50
2021/12/07 02:31:18;;;;;;;7.03;2.63;;;;;;;;;;5115813;27;20027;-52
2021/12/07 02:33:43;;;;;;;5.05;3.88;;;;;;;;;;5112633;27;20026;-53
2021/12/07 02:36:11;;;;;;;4.15;2.10;;;;;;;;;;5111345;27;20484;-52
2021/12/07 02:38:39;;;;;;;9.02;2.75;;;;;;;;;;5117355;27;20016;-53
2021/12/07 02:41:08;;;;;;;7.55;5.57;;;;;;;;;;5116136;27;20030;-54
2021/12/07 02:43:33;;;;;;;14.68;5.18;;;;;;;;;;5118737;27;20024;-53
2021/12/07 02:45:59;;;;;;;7.85;5.18;;;;;;;;;;5118432;27;20038;-54
2021/12/07 02:48:24;;;;;;;4.72;3.03;;;;;;;;;;5120309;27;20029;-54
2021/12/07 02:50:50;;;;;;;5.80;4.10;;;;;;;;;;5117529;27;20512;-54
2021/12/07 02:53:18;;;;;;;12.82;3.00;;;;;;;;;;5123390;27;20388;-52
2021/12/07 02:55:43;;;;;;;7.90;3.38;;;;;;;;;;5095889;27;20030;-54
2021/12/07 02:58:09;;;;;;;7.95;5.95;;;;;;;;;;5118094;27;20360;-53
2021/12/07 03:00:42;;;;;;;6.03;3.88;;;;;;;;;;5118526;27;20038;-48
2021/12/07 03:03:11;;;;;;;10.27;5.60;;;;;;;;;;5114082;27;20476;-48
2021/12/07 03:08:41;;;;;;;12.55;4.53;;;;;;;;;;5094566;27;20030;-51
2021/12/07 03:27:24;;;;;;;10.13;4.95;;;;;;;;;;5117729;27;20480;-48
2021/12/07 03:29:49;;;;;;;8.45;4.78;;;;;;;;;;5116688;27;20678;-47
2021/12/07 03:32:15;;;;;;;7.70;4.57;;;;;;;;;;5119719;27;20015;-49
2021/12/07 03:34:40;;;;;;;6.88;4.43;;;;;;;;;;5120861;27;20570;-49
2021/12/07 03:37:06;;;;;;;12.40;4.25;;;;;;;;;;5115599;27;20019;-48
2021/12/07 03:39:31;;;;;;;9.52;5.68;;;;;;;;;;5112052;27;20134;-50
2021/12/07 03:41:57;;;;;;;5.25;3.40;;;;;;;;;;5113797;27;20028;-50
2021/12/07 03:44:22;;;;;;;8.70;3.15;;;;;;;;;;5114035;27;20054;-50
2021/12/07 03:46:47;;;;;;;7.97;3.35;;;;;;;;;;5117531;27;20019;-50
2021/12/07 03:49:13;;;;;;;8.25;4.32;;;;;;;;;;5115790;27;20090;-49
2021/12/07 03:51:39;;;;;;;6.28;4.07;;;;;;;;;;5115572;27;20019;-52
2021/12/07 03:54:05;;;;;;;12.40;3.22;;;;;;;;;;5113548;27;20139;-47
2021/12/07 03:56:30;;;;;;;4.80;2.00;;;;;;;;;;5115721;27;20103;-52
2021/12/07 03:58:56;;;;;;;5.55;2.35;;;;;;;;;;5115275;27;20110;-48
2021/12/07 04:01:23;;;;;;;2.22;1.38;;;;;;;;;;5111759;27;20019;-48
2021/12/07 04:03:50;;;;;;;3.38;1.20;;;;;;;;;;5115117;27;20037;-49
2021/12/07 04:06:15;;;;;;;5.03;1.27;;;;;;;;;;5115919;27;20487;-52
2021/12/07 04:08:42;;;;;;;1.70;0.60;;;;;;;;;;5116214;27;20023;-52
2021/12/07 04:11:07;;;;;;;6.57;1.25;;;;;;;;;;5115727;28;20019;-50
2021/12/07 04:13:32;;;;;;;3.20;1.58;;;;;;;;;;5116027;27;20065;-52
2021/12/07 04:15:59;;;;;;;6.15;2.42;;;;;;;;;;5115570;27;20016;-48
2021/12/07 04:18:25;;;;;;;3.30;1.67;;;;;;;;;;5116684;28;20050;-53
2021/12/07 04:20:51;;;;;;;11.20;2.25;;;;;;;;;;5112103;28;20473;-51
2021/12/07 04:23:16;;;;;;;4.10;0.90;;;;;;;;;;5112197;28;20035;-50
2021/12/07 04:25:41;;;;;;;4.18;1.65;;;;;;;;;;5114786;28;20039;-53
2021/12/07 04:28:07;;;;;;;3.42;1.25;;;;;;;;;;5113140;28;20776;-53
2021/12/07 04:30:42;;;;;;;2.80;1.35;;;;;;;;;;5119456;28;20087;-52
2021/12/07 04:33:08;;;;;;;6.15;1.55;;;;;;;;;;5116931;28;20089;-49
2021/12/07 04:35:34;;;;;;;11.23;7.30;;;;;;;;;;5115436;28;20499;-49
2021/12/07 04:38:00;;;;;;;7.20;2.67;;;;;;;;;;5115137;28;20558;-52
2021/12/07 04:40:27;;;;;;;5.03;2.58;;;;;;;;;;5116393;28;20015;-51
2021/12/07 04:42:52;;;;;;;2.95;1.33;;;;;;;;;;5116036;28;20743;-52
2021/12/07 04:45:51;;;;;;;10.98;6.18;;;;;;;;;;5119516;28;20027;-51
2021/12/07 04:58:56;;;;;;;11.10;5.80;;;;;;;;;;5116371;28;20030;-47
2021/12/07 05:01:21;;;;;;;8.55;4.57;;;;;;;;;;5114119;28;20019;-52
2021/12/07 05:03:48;;;;;;;4.03;2.75;;;;;;;;;;5113944;28;20103;-53
2021/12/07 05:06:14;;;;;;;2.58;0.88;;;;;;;;;;5110748;28;20038;-48
2021/12/07 05:08:43;;;;;;;2.88;1.63;;;;;;;;;;5113490;27;20055;-48
2021/12/07 05:13:40;;;;;;;6.13;2.22;;;;;;;;;;5122250;27;20085;-47
2021/12/07 05:16:27;;;;;;;9.25;3.00;;;;;;;;;;5116277;27;20106;-51
2021/12/07 05:24:07;;;;;;;4.90;1.52;;;;;;;;;;5121305;27;20068;-52
2021/12/07 05:40:10;;;;;;;3.20;1.95;;;;;;;;;;5115588;27;20030;-48
2021/12/07 05:42:36;;;;;;;1.85;1.17;;;;;;;;;;5116001;27;20034;-51
2021/12/07 05:45:02;;;;;;;4.30;1.88;;;;;;;;;;5112387;27;20020;-52
2021/12/07 05:47:27;;;;;;;3.53;1.30;;;;;;;;;;5115392;27;20023;-49
2021/12/07 05:49:53;;;;;;;7.88;2.85;;;;;;;;;;5115574;27;20176;-53
2021/12/07 05:52:19;;;;;;;7.10;4.28;;;;;;;;;;5119665;27;20456;-50
2021/12/07 05:54:44;;;;;;;11.60;5.60;;;;;;;;;;5118934;27;20023;-51
2021/12/07 05:57:09;;;;;;;12.70;4.32;;;;;;;;;;5124897;27;20458;-50
2021/12/07 05:59:35;;;;;;;4.65;3.33;;;;;;;;;;5122396;27;20637;-50
2021/12/07 06:02:00;;;;;;;6.03;2.70;;;;;;;;;;5114730;27;20024;-50
2021/12/07 06:04:26;;;;;;;8.85;4.63;;;;;;;;;;5117395;27;20107;-48
2021/12/07 06:06:51;;;;;;;7.63;2.95;;;;;;;;;;5117628;27;20069;-48
2021/12/07 06:09:16;;;;;;;7.70;3.67;;;;;;;;;;5115573;27;20106;-48
2021/12/07 06:11:42;;;;;;;14.82;3.78;;;;;;;;;;5119797;27;20022;-49
2021/12/07 06:14:09;;;;;;;6.32;3.22;;;;;;;;;;5117498;27;20374;-49
2021/12/07 06:16:35;;;;;;;5.70;3.50;;;;;;;;;;5117162;27;20023;-51
2021/12/07 06:19:00;;;;;;;12.25;6.95;;;;;;;;;;5115363;27;20054;-51
2021/12/07 06:21:26;;;;;;;14.15;5.95;;;;;;;;;;5120257;27;20030;-49
2021/12/07 06:23:52;;;;;;;20.38;8.90;;;;;;;;;;5113993;27;20019;-44
2021/12/07 06:26:17;;;;;;;12.10;3.90;;;;;;;;;;5119280;27;20071;-48
2021/12/07 06:28:42;;;;;;;15.43;3.00;;;;;;;;;;5116587;27;20070;-45
2021/12/07 06:31:07;;;;;;;9.45;5.47;;;;;;;;;;5117108;27;20051;-46
2021/12/07 06:33:33;;;;;;;11.48;4.90;;;;;;;;;;5113210;27;20022;-48
2021/12/07 06:36:00;;;;;;;14.40;4.28;;;;;;;;;;5114664;27;20035;-44
2021/12/07 06:38:30;;;;;;;26.65;3.97;;;;;;;;;;5112488;27;20020;-44
2021/12/07 06:40:55;;;;;;;17.67;6.78;;;;;;;;;;5120145;27;20059;-46
2021/12/07 06:43:21;;;;;;;23.58;12.40;;;;;;;;;;5111938;27;20467;-48
2021/12/07 06:45:47;;;;;;;24.58;8.25;;;;;;;;;;5119554;27;20023;-46
2021/12/07 06:48:12;;;;;;;6.00;3.42;;;;;;;;;;5112855;27;20399;-45
2021/12/07 06:50:37;;;;;;;10.52;4.55;;;;;;;;;;5114693;27;20556;-46
2021/12/07 06:53:03;;;;;;;4.65;3.45;;;;;;;;;;5117574;27;20728;-46
2021/12/07 06:55:28;;;;;;;8.30;3.22;;;;;;;;;;5117311;27;20527;-45
2021/12/07 06:57:54;;;;;;;8.10;4.15;;;;;;;;;;5114730;27;20038;-44
2021/12/07 07:00:19;;;;;;;8.77;3.75;;;;;;;;;;5112096;27;20043;-47
2021/12/07 07:02:45;;;;;;;15.27;3.22;;;;;;;;;;5117478;27;20476;-46
2021/12/07 07:05:10;;;;;;;5.00;3.03;;;;;;;;;;5115755;27;20674;-44
2021/12/07 07:07:36;;;;;;;16.38;5.00;;;;;;;;;;5113166;27;20736;-48
2021/12/07 07:10:03;;;;;;;19.50;6.00;;;;;;;;;;5118663;27;20041;-46
2021/12/07 07:12:28;;;;;;;5.15;3.45;;;;;;;;;;5117039;27;20567;-44
2021/12/07 07:14:53;;;;;;;6.47;3.25;;;;;;;;;;5111306;27;20028;-45
2021/12/07 07:17:19;;;;;;;11.73;8.38;;;;;;;;;;5117721;27;20054;-47
2021/12/07 07:19:44;;;;;;;23.55;16.08;;;;;;;;;;5116932;27;20143;-51
2021/12/07 07:22:09;;;;;;;33.38;20.08;;;;;;;;;;5115700;27;20024;-50
2021/12/07 07:24:35;;;;;;;82.47;59.63;;;;;;;;;;5117005;27;20038;-47
2021/12/07 07:27:00;;;;;;;49.97;34.17;;;;;;;;;;5115246;27;20011;-46
2021/12/07 07:29:26;;;;;;;44.85;31.65;;;;;;;;;;5114216;27;20048;-45
2021/12/07 07:31:52;;;;;;;36.80;23.02;;;;;;;;;;5114435;27;20090;-45
2021/12/07 07:34:17;;;;;;;41.25;21.02;;;;;;;;;;5114847;27;20021;-45
2021/12/07 07:36:42;;;;;;;22.70;16.73;;;;;;;;;;5113525;27;20087;-47
2021/12/07 07:39:08;;;;;;;24.92;20.85;;;;;;;;;;5116957;27;20699;-43
2021/12/07 07:41:33;;;;;;;31.90;22.17;;;;;;;;;;5115611;27;20032;-44
2021/12/07 07:43:58;;;;;;;22.42;20.00;;;;;;;;;;5113465;27;20024;-50
2021/12/07 07:46:24;;;;;;;23.23;18.77;;;;;;;;;;5115086;27;20020;-48
2021/12/07 07:48:49;;;;;;;33.20;22.88;;;;;;;;;;5119554;27;20026;-47
2021/12/07 07:51:14;;;;;;;44.25;23.13;;;;;;;;;;5116944;27;20790;-45
2021/12/07 07:53:40;;;;;;;36.65;24.58;;;;;;;;;;5116608;27;20019;-46
2021/12/07 07:56:05;;;;;;;35.00;25.27;;;;;;;;;;5114083;27;20016;-43
2021/12/07 07:58:31;;;;;;;46.25;32.72;;;;;;;;;;5115108;27;20029;-43
2021/12/07 08:00:56;;;;;;;40.80;29.23;;;;;;;;;;5118419;27;20130;-41
2021/12/07 08:03:22;;;;;;;35.03;25.20;;;;;;;;;;5116656;27;20027;-43
2021/12/07 08:05:47;;;;;;;41.88;30.10;;;;;;;;;;5117425;27;20023;-45
2021/12/07 08:08:13;;;;;;;41.92;29.42;;;;;;;;;;5111572;27;20020;-46
2021/12/07 08:10:39;;;;;;;37.78;25.25;;;;;;;;;;5109504;27;20031;-46
2021/12/07 08:13:05;;;;;;;38.10;27.88;;;;;;;;;;5114930;27;20022;-49
2021/12/07 08:15:32;;;;;;;55.35;36.65;;;;;;;;;;5110328;27;20034;-48
2021/12/07 08:17:57;;;;;;;52.25;35.67;;;;;;;;;;5111082;27;20051;-48
2021/12/07 08:20:23;;;;;;;55.15;36.13;;;;;;;;;;5116048;27;20058;-47
2021/12/07 08:22:49;;;;;;;51.00;36.95;;;;;;;;;;5116240;28;20032;-46
2021/12/07 08:25:15;;;;;;;56.22;35.80;;;;;;;;;;5115488;28;20380;-45
2021/12/07 08:27:40;;;;;;;52.42;30.65;;;;;;;;;;5112556;28;20019;-46
2021/12/07 08:30:07;;;;;;;32.55;25.33;;;;;;;;;;5111106;28;20012;-46
2021/12/07 08:32:32;;;;;;;42.03;37.45;;;;;;;;;;5113270;28;20019;-49
2021/12/07 08:34:58;;;;;;;48.08;35.25;;;;;;;;;;5117567;28;20072;-46
2021/12/07 08:37:23;;;;;;;66.93;39.72;;;;;;;;;;5116017;28;20473;-45
2021/12/07 08:39:48;;;;;;;55.53;42.10;;;;;;;;;;5114765;28;20072;-46
2021/12/07 08:42:15;;;;;;;78.57;53.85;;;;;;;;;;5117127;27;20432;-47
2021/12/07 08:44:40;;;;;;;142.30;97.78;;;;;;;;;;5116934;27;20499;-46
2021/12/07 08:47:06;;;;;;;69.97;55.10;;;;;;;;;;5115578;27;20061;-50
2021/12/07 08:49:31;;;;;;;69.53;44.03;;;;;;;;;;5115709;27;20455;-45
2021/12/07 08:51:56;;;;;;;80.25;57.55;;;;;;;;;;5116271;27;20498;-47
2021/12/07 08:59:45;;;;;;;234.95;181.90;;;;;;;;;;5115361;27;20046;-43
2021/12/07 09:02:20;;;;;;;258.15;198.15;;;;;;;;;;5118365;27;20092;-45
2021/12/07 09:04:46;;;;;;;196.27;165.32;;;;;;;;;;5117234;27;20031;-45
2021/12/07 09:07:12;;;;;;;171.30;140.10;;;;;;;;;;5116446;27;20034;-43
2021/12/07 09:09:38;;;;;;;140.98;115.05;;;;;;;;;;5117675;27;20027;-45
2021/12/07 09:12:05;;;;;;;95.63;73.70;;;;;;;;;;5115830;27;20030;-47
2021/12/07 09:14:31;;;;;;;112.55;85.05;;;;;;;;;;5117629;27;20037;-45
2021/12/07 09:16:57;;;;;;;90.15;80.10;;;;;;;;;;5113021;27;20031;-43
2021/12/07 09:19:22;;;;;;;125.80;94.90;;;;;;;;;;5114168;27;20024;-45
2021/12/07 09:21:48;;;;;;;108.82;87.20;;;;;;;;;;5116076;27;20016;-44
2021/12/07 09:24:13;;;;;;;92.93;80.93;;;;;;;;;;5113730;27;20769;-44
2021/12/07 09:26:38;;;;;;;100.45;76.80;;;;;;;;;;5116289;27;20699;-48
2021/12/07 09:29:05;;;;;;;93.50;76.40;;;;;;;;;;5114662;27;20274;-45
2021/12/07 09:31:30;;;;;;;80.57;63.40;;;;;;;;;;5118758;27;20015;-48
2021/12/07 09:33:56;;;;;;;72.80;57.80;;;;;;;;;;5119038;27;20022;-47
2021/12/07 09:36:22;;;;;;;50.33;41.33;;;;;;;;;;5115792;27;20053;-44
2021/12/07 09:38:48;;;;;;;44.20;31.85;;;;;;;;;;5116427;27;20436;-47
2021/12/07 09:41:15;;;;;;;51.03;36.45;;;;;;;;;;5115996;27;20027;-46
2021/12/07 09:43:40;;;;;;;62.80;55.92;;;;;;;;;;5115180;27;20055;-47
2021/12/07 09:46:06;;;;;;;66.75;56.13;;;;;;;;;;5113519;27;20122;-48
2021/12/07 09:48:31;;;;;;;57.45;49.13;;;;;;;;;;5115604;27;20126;-47
2021/12/07 09:50:57;;;;;;;94.75;67.82;;;;;;;;;;5114060;27;20101;-47
2021/12/07 09:53:23;;;;;;;92.85;71.55;;;;;;;;;;5117003;27;20015;-52
2021/12/07 09:55:49;;;;;;;56.13;44.55;;;;;;;;;;5115680;27;20549;-45
2021/12/07 09:58:15;;;;;;;45.63;32.50;;;;;;;;;;5118399;27;20054;-48
2021/12/07 10:00:41;;;;;;;40.58;26.15;;;;;;;;;;5117316;27;20488;-48
2021/12/07 10:03:07;;;;;;;51.60;28.55;;;;;;;;;;5121056;27;20113;-47
2021/12/07 10:05:35;;;;;;;30.45;26.77;;;;;;;;;;5111749;27;20169;-50
2021/12/07 10:08:01;;;;;;;36.03;28.52;;;;;;;;;;5114631;27;20181;-48
2021/12/07 10:10:28;;;;;;;34.35;28.27;;;;;;;;;;5117511;27;20102;-47
2021/12/07 10:12:54;;;;;;;46.05;32.63;;;;;;;;;;5116052;27;20045;-50
2021/12/07 10:15:19;;;;;;;37.00;25.38;;;;;;;;;;5115128;27;20140;-44
2021/12/07 10:18:05;;;;;;;18.75;13.93;;;;;;;;;;5114245;27;20074;-46
2021/12/07 10:20:42;;;;;;;15.10;11.90;;;;;;;;;;5113060;27;20032;-46
2021/12/07 10:23:14;;;;;;;30.08;26.60;;;;;;;;;;5114843;27;20038;-45
2021/12/07 10:25:40;;;;;;;;;;;;;;;;;;5111672;27;20028;-46
2021/12/07 10:28:22;;;;;;;11.38;9.65;;;;;;;;;;5116967;27;20006;-50
2021/12/07 10:30:48;;;;;;;11.07;6.13;;;;;;;;;;5117847;27;20019;-45
2021/12/07 10:33:16;;;;;;;10.77;6.43;;;;;;;;;;5111034;27;20033;-49
2021/12/07 10:35:41;;;;;;;12.48;9.73;;;;;;;;;;5116625;27;20042;-51
2021/12/07 10:38:06;;;;;;;114.60;81.43;;;;;;;;;;5112931;27;20667;-45
2021/12/07 10:40:32;;;;;;;141.98;106.95;;;;;;;;;;5113462;27;20418;-47
2021/12/07 10:42:57;;;;;;;37.15;26.33;;;;;;;;;;5116093;27;20024;-47
2021/12/07 10:45:26;;;;;;;19.33;14.90;;;;;;;;;;5114144;27;20442;-44
2021/12/07 10:47:52;;;;;;;17.50;13.07;;;;;;;;;;5116631;27;20023;-45
2021/12/07 10:50:18;;;;;;;12.50;5.22;;;;;;;;;;5116273;27;20046;-44
2021/12/07 10:52:45;;;;;;;15.60;13.30;;;;;;;;;;5115433;27;20016;-48
2021/12/07 10:55:15;;;;;;;25.40;18.65;;;;;;;;;;5119424;27;20019;-49
2021/12/07 10:57:53;;;;;;;45.17;32.15;;;;;;;;;;5114315;27;20031;-44
2021/12/07 11:00:20;;;;;;;51.55;25.40;;;;;;;;;;5116935;27;20051;-48
2021/12/07 11:02:50;;;;;;;38.28;28.40;;;;;;;;;;5116726;27;20030;-44
2021/12/07 11:05:35;;;;;;;16.27;10.45;;;;;;;;;;5116547;27;20022;-44
2021/12/07 11:08:03;;;;;;;27.30;17.95;;;;;;;;;;5116646;27;20039;-45
2021/12/07 11:10:31;;;;;;;124.93;100.30;;;;;;;;;;5114756;27;20084;-44
2021/12/07 11:15:26;;;;;;;181.43;140.77;;;;;;;;;;5117696;27;20026;-45
2021/12/07 11:17:53;;;;;;;129.05;87.78;;;;;;;;;;5114661;27;20051;-47
2021/12/07 11:20:18;;;;;;;104.15;75.65;;;;;;;;;;5115665;27;20397;-47
2021/12/07 11:22:46;;;;;;;87.40;68.25;;;;;;;;;;5115403;27;20539;-46
2021/12/07 11:25:22;;;;;;;44.50;38.42;;;;;;;;;;5117320;27;20457;-45
2021/12/07 11:30:32;;;;;;;41.30;35.42;;;;;;;;;;5114030;27;20065;-48
2021/12/07 11:33:01;;;;;;;78.20;51.90;;;;;;;;;;5113978;27;20047;-45
2021/12/07 11:35:33;;;;;;;89.10;68.32;;;;;;;;;;5114375;27;20027;-45
2021/12/07 11:38:00;;;;;;;224.98;171.73;;;;;;;;;;5111861;27;20030;-43
2021/12/07 11:40:37;;;;;;;233.05;185.50;;;;;;;;;;5115028;27;20110;-45
2021/12/07 11:43:14;;;;;;;125.30;89.03;;;;;;;;;;5115055;27;20041;-51
2021/12/07 11:45:42;;;;;;;94.18;82.63;;;;;;;;;;5114402;27;20076;-45
2021/12/07 11:48:08;;;;;;;56.67;41.88;;;;;;;;;;5116274;27;20525;-44
2021/12/07 11:50:38;;;;;;;78.10;57.50;;;;;;;;;;5116286;27;20023;-46
2021/12/07 11:53:11;;;;;;;26.23;22.95;;;;;;;;;;5113370;27;20027;-50
2021/12/07 11:55:39;;;;;;;36.20;23.98;;;;;;;;;;5113554;27;20077;-47
2021/12/07 11:58:05;;;;;;;45.63;36.58;;;;;;;;;;5112856;27;20483;-45
2021/12/07 12:00:34;;;;;;;81.75;72.20;;;;;;;;;;5095986;27;20458;-46
2021/12/07 12:03:04;;;;;;;38.10;32.22;;;;;;;;;;5115574;27;20023;-46
2021/12/07 12:05:29;;;;;;;81.97;58.35;;;;;;;;;;5108523;27;20012;-43
2021/12/07 12:07:56;;;;;;;93.18;63.33;;;;;;;;;;5115862;27;20027;-47
2021/12/07 12:10:21;;;;;;;80.07;60.90;;;;;;;;;;5109867;27;20420;-48
2021/12/07 12:13:07;;;;;;;49.15;28.80;;;;;;;;;;5114238;27;20118;-48
2021/12/07 12:15:32;;;;;;;31.42;23.15;;;;;;;;;;5114497;27;20007;-45
2021/12/07 12:18:10;;;;;;;17.92;11.52;;;;;;;;;;5115156;27;20419;-45
2021/12/07 12:20:55;;;;;;;107.15;34.03;;;;;;;;;;5113335;27;20042;-45
2021/12/07 12:23:29;;;;;;;20.70;11.57;;;;;;;;;;5117780;28;20023;-49
2021/12/07 12:25:59;;;;;;;29.92;16.63;;;;;;;;;;5114299;28;20012;-44
2021/12/07 12:28:47;;;;;;;14.80;9.52;;;;;;;;;;5112776;28;20542;-47
2021/12/07 12:31:13;;;;;;;10.50;8.43;;;;;;;;;;5115749;28;20046;-44
2021/12/07 12:33:45;;;;;;;6.85;5.35;;;;;;;;;;5114878;28;20023;-48
2021/12/07 12:36:11;;;;;;;11.43;7.30;;;;;;;;;;5116076;28;20023;-43
2021/12/07 12:38:36;;;;;;;17.98;13.48;;;;;;;;;;5112611;28;20016;-45
2021/12/07 12:41:03;;;;;;;261.80;211.82;;;;;;;;;;5111166;28;20039;-46
2021/12/07 12:43:46;;;;;;;25.52;22.88;;;;;;;;;;5111802;28;20023;-44
2021/12/07 12:46:13;;;;;;;25.65;23.10;;;;;;;;;;5115530;28;20026;-44
2021/12/07 12:48:42;;;;;;;24.77;18.05;;;;;;;;;;5116152;28;20054;-47
2021/12/07 12:51:09;;;;;;;23.73;17.58;;;;;;;;;;5115788;28;20072;-45
2021/12/07 12:53:34;;;;;;;15.63;14.00;;;;;;;;;;5117325;28;20021;-44
2021/12/07 12:56:02;;;;;;;28.42;20.30;;;;;;;;;;5114070;28;20019;-44
2021/12/07 12:58:27;;;;;;;14.43;10.05;;;;;;;;;;5112491;28;20015;-42
2021/12/07 13:00:59;;;;;;;15.15;10.15;;;;;;;;;;5094125;28;20042;-43
2021/12/07 13:03:25;;;;;;;17.25;9.07;;;;;;;;;;5115120;28;20026;-45
2021/12/07 13:06:01;;;;;;;12.00;6.97;;;;;;;;;;5113361;28;20016;-44
2021/12/07 13:08:26;;;;;;;8.77;6.93;;;;;;;;;;5114556;28;20024;-46
2021/12/07 13:10:59;;;;;;;16.00;8.02;;;;;;;;;;5116104;28;20383;-42
2021/12/07 13:13:26;;;;;;;10.23;8.18;;;;;;;;;;5112170;28;20027;-44
2021/12/07 13:15:51;;;;;;;7.70;6.60;;;;;;;;;;5106122;28;20069;-46
2021/12/07 13:18:27;;;;;;;14.00;7.03;;;;;;;;;;5112890;28;20051;-43
2021/12/07 13:20:52;;;;;;;7.80;4.88;;;;;;;;;;5119333;28;20027;-42
2021/12/07 13:23:17;;;;;;;5.53;4.53;;;;;;;;;;5120791;28;20018;-45
2021/12/07 13:25:48;;;;;;;8.57;5.10;;;;;;;;;;5116088;28;20039;-46
2021/12/07 13:28:21;;;;;;;7.68;4.97;;;;;;;;;;5118645;27;20019;-46
2021/12/07 13:31:05;;;;;;;7.57;4.63;;;;;;;;;;5112637;27;20062;-42
2021/12/07 13:33:35;;;;;;;8.57;4.85;;;;;;;;;;5121008;27;20035;-44
2021/12/07 13:36:01;;;;;;;12.25;5.00;;;;;;;;;;5119492;27;20027;-45
2021/12/07 13:38:29;;;;;;;12.73;4.03;;;;;;;;;;5118702;27;20058;-44
2021/12/07 13:41:13;;;;;;;9.02;5.10;;;;;;;;;;5118841;27;20090;-44
2021/12/07 13:43:39;;;;;;;8.18;4.70;;;;;;;;;;5116444;27;20015;-46
2021/12/07 13:46:07;;;;;;;4.38;3.10;;;;;;;;;;5114624;27;20333;-42
2021/12/07 13:48:33;;;;;;;8.45;3.90;;;;;;;;;;5117597;27;20659;-41
2021/12/07 13:50:58;;;;;;;18.25;9.73;;;;;;;;;;5119010;27;20022;-46
2021/12/07 13:53:26;;;;;;;12.15;7.32;;;;;;;;;;5119011;27;20103;-42
2021/12/07 13:55:51;;;;;;;15.85;8.23;;;;;;;;;;5115258;27;20015;-47
2021/12/07 13:58:17;;;;;;;10.25;5.32;;;;;;;;;;5118607;27;20103;-48
2021/12/07 14:00:42;;;;;;;13.30;4.57;;;;;;;;;;5121668;27;20023;-44
2021/12/07 14:03:08;;;;;;;4.03;2.85;;;;;;;;;;5117507;27;20043;-43
2021/12/07 14:05:38;;;;;;;9.15;6.18;;;;;;;;;;5115290;27;20015;-43
2021/12/07 14:08:05;;;;;;;8.15;3.00;;;;;;;;;;5115221;27;20031;-45
2021/12/07 14:10:32;;;;;;;8.18;3.33;;;;;;;;;;5117816;27;20046;-42
2021/12/07 14:12:59;;;;;;;6.68;2.78;;;;;;;;;;5118637;27;20198;-47
2021/12/07 14:15:27;;;;;;;24.20;7.70;;;;;;;;;;5117335;27;20634;-46
2021/12/07 14:17:54;;;;;;;21.95;8.75;;;;;;;;;;5112126;27;20039;-45
2021/12/07 14:20:49;;;;;;;15.52;7.25;;;;;;;;;;5114807;27;20063;-44
2021/12/07 14:23:23;;;;;;;10.68;7.13;;;;;;;;;;5097780;27;20508;-46
2021/12/07 14:25:54;;;;;;;37.92;33.80;;;;;;;;;;5116855;27;20027;-46
2021/12/07 14:28:28;;;;;;;21.90;18.83;;;;;;;;;;5112695;27;20537;-42
2021/12/07 14:30:58;;;;;;;13.38;12.00;;;;;;;;;;5114556;27;20094;-43
2021/12/07 14:33:23;;;;;;;16.45;12.20;;;;;;;;;;5114694;27;20484;-45
2021/12/07 14:35:49;;;;;;;12.52;11.20;;;;;;;;;;5114697;27;20101;-44
2021/12/07 14:38:14;;;;;;;46.72;34.40;;;;;;;;;;5114913;27;20008;-42
2021/12/07 14:40:42;;;;;;;39.40;35.33;;;;;;;;;;5114468;27;20035;-47
2021/12/07 14:43:07;;;;;;;28.58;23.30;;;;;;;;;;5117381;27;20026;-42
2021/12/07 14:45:32;;;;;;;20.15;14.23;;;;;;;;;;5112550;27;20012;-45
2021/12/07 14:48:16;;;;;;;31.40;17.10;;;;;;;;;;5118042;27;20106;-44
2021/12/07 14:50:41;;;;;;;27.10;20.67;;;;;;;;;;5113332;27;20032;-43
2021/12/07 14:53:07;;;;;;;11.25;7.25;;;;;;;;;;5116604;27;20012;-42
2021/12/07 14:55:38;;;;;;;45.63;31.45;;;;;;;;;;5119899;27;20023;-45
2021/12/07 14:58:26;;;;;;;9.30;5.82;;;;;;;;;;5115351;27;20015;-43
2021/12/07 15:00:52;;;;;;;11.25;6.32;;;;;;;;;;5116924;27;20039;-43
2021/12/07 15:03:17;;;;;;;12.60;7.63;;;;;;;;;;5119234;27;20127;-42
2021/12/07 15:05:42;;;;;;;12.57;5.72;;;;;;;;;;5117537;27;20053;-43
2021/12/07 15:08:11;;;;;;;25.13;17.02;;;;;;;;;;5114813;27;20034;-42
2021/12/07 15:10:37;;;;;;;51.78;33.92;;;;;;;;;;5113335;27;20028;-44
2021/12/07 15:13:02;;;;;;;25.33;15.55;;;;;;;;;;5118854;27;20025;-43
2021/12/07 15:15:33;;;;;;;15.60;9.00;;;;;;;;;;5117669;27;20026;-44
2021/12/07 15:17:58;;;;;;;19.08;13.57;;;;;;;;;;5094543;27;20415;-43
2021/12/07 15:20:24;;;;;;;53.75;48.35;;;;;;;;;;5111655;27;20027;-45
2021/12/07 15:22:49;;;;;;;19.42;9.00;;;;;;;;;;5117071;27;20463;-45
2021/12/07 15:25:14;;;;;;;11.88;6.75;;;;;;;;;;5114132;27;20046;-44
2021/12/07 15:27:55;;;;;;;13.63;5.88;;;;;;;;;;5117077;27;20024;-45
2021/12/07 15:30:34;;;;;;;4.53;3.72;;;;;;;;;;5113903;27;20047;-44
2021/12/07 15:33:01;;;;;;;19.67;7.18;;;;;;;;;;5116924;27;20070;-45
2021/12/07 15:35:27;;;;;;;5.55;4.95;;;;;;;;;;5116805;27;20077;-43
2021/12/07 15:37:52;;;;;;;9.73;4.30;;;;;;;;;;5116378;27;20019;-43
2021/12/07 15:40:19;;;;;;;16.13;4.55;;;;;;;;;;5115583;27;20751;-41
2021/12/07 15:42:44;;;;;;;10.38;2.63;;;;;;;;;;5112398;27;20023;-45
2021/12/07 15:45:11;;;;;;;3.83;2.78;;;;;;;;;;5112120;27;20673;-46
2021/12/07 15:47:39;;;;;;;6.00;5.43;;;;;;;;;;5114480;27;20050;-43
2021/12/07 15:50:08;;;;;;;12.88;4.80;;;;;;;;;;5113998;27;20025;-46
2021/12/07 15:52:36;;;;;;;8.90;4.18;;;;;;;;;;5115327;27;20023;-44
2021/12/07 15:55:04;;;;;;;6.50;3.65;;;;;;;;;;5114689;27;20015;-42
2021/12/07 15:57:59;;;;;;;12.15;4.38;;;;;;;;;;5115056;27;20090;-43
2021/12/07 16:00:37;;;;;;;8.35;2.97;;;;;;;;;;5092270;27;20023;-43
2021/12/07 16:03:06;;;;;;;8.55;3.83;;;;;;;;;;5114838;27;20405;-44
2021/12/07 16:05:36;;;;;;;5.93;2.97;;;;;;;;;;5115295;27;20102;-42
2021/12/07 16:08:06;;;;;;;4.30;2.42;;;;;;;;;;5116422;27;20018;-47
2021/12/07 16:10:35;;;;;;;6.55;3.67;;;;;;;;;;5113924;27;20015;-44
2021/12/07 16:13:04;;;;;;;4.60;3.63;;;;;;;;;;5111940;27;20027;-44
2021/12/07 16:15:30;;;;;;;3.30;2.70;;;;;;;;;;5110215;27;20027;-46
2021/12/07 16:17:56;;;;;;;3.63;1.88;;;;;;;;;;5113294;27;20094;-42